sensor_id;sensor_type;location;lat;lon;timestamp;pressure;altitude;pressure_sealevel;temperature;humidity
73934;BME280;62286;50.528;18.284;2022-12-11T00:02:02;97982.56;;;21.69;38.35
73934;BME280;62286;50.528;18.284;2022-12-11T00:04:27;97986.91;;;21.70;38.49
73934;BME280;62286;50.528;18.284;2022-12-11T00:06:53;97979.75;;;21.69;38.42
73934;BME280;62286;50.528;18.284;2022-12-11T00:09:18;97986.13;;;21.69;38.42
73934;BME280;62286;50.528;18.284;2022-12-11T00:11:44;97989.69;;;21.70;38.40
73934;BME280;62286;50.528;18.284;2022-12-11T00:14:11;97983.31;;;21.69;38.49
73934;BME280;62286;50.528;18.284;2022-12-11T00:16:36;97971.41;;;21.69;38.47
73934;BME280;62286;50.528;18.284;2022-12-11T00:19:01;97970.16;;;21.70;38.28
73934;BME280;62286;50.528;18.284;2022-12-11T00:21:26;97958.22;;;21.69;38.59
73934;BME280;62286;50.528;18.284;2022-12-11T00:23:51;97953.44;;;21.70;38.47
73934;BME280;62286;50.528;18.284;2022-12-11T00:26:16;97954.22;;;21.70;38.54
73934;BME280;62286;50.528;18.284;2022-12-11T00:28:42;97946.31;;;21.69;38.49
73934;BME280;62286;50.528;18.284;2022-12-11T00:31:08;97953.44;;;21.70;38.49
73934;BME280;62286;50.528;18.284;2022-12-11T00:33:35;97947.84;;;21.70;38.33
73934;BME280;62286;50.528;18.284;2022-12-11T00:36:00;97944.28;;;21.69;38.29
73934;BME280;62286;50.528;18.284;2022-12-11T00:38:25;97951.41;;;21.70;38.52
73934;BME280;62286;50.528;18.284;2022-12-11T00:40:50;97956.22;;;21.70;38.27
73934;BME280;62286;50.528;18.284;2022-12-11T00:43:15;97955.75;;;21.71;38.55
73934;BME280;62286;50.528;18.284;2022-12-11T00:45:41;97944.59;;;21.71;38.47
73934;BME280;62286;50.528;18.284;2022-12-11T00:48:07;97948.94;;;21.72;38.25
73934;BME280;62286;50.528;18.284;2022-12-11T00:50:32;97945.75;;;21.74;38.22
73934;BME280;62286;50.528;18.284;2022-12-11T00:52:58;97946.50;;;21.74;38.31
73934;BME280;62286;50.528;18.284;2022-12-11T00:55:23;97947.28;;;21.75;38.43
73934;BME280;62286;50.528;18.284;2022-12-11T00:57:50;97945.59;;;21.77;38.50
73934;BME280;62286;50.528;18.284;2022-12-11T01:00:15;97944.81;;;21.77;38.31
73934;BME280;62286;50.528;18.284;2022-12-11T01:02:40;97944.06;;;21.76;38.55
73934;BME280;62286;50.528;18.284;2022-12-11T01:05:05;97940.03;;;21.77;38.20
73934;BME280;62286;50.528;18.284;2022-12-11T01:07:30;97943.59;;;21.78;38.24
73934;BME280;62286;50.528;18.284;2022-12-11T01:09:56;97950.41;;;21.77;38.37
73934;BME280;62286;50.528;18.284;2022-12-11T01:12:21;97948.41;;;21.77;38.37
73934;BME280;62286;50.528;18.284;2022-12-11T01:14:46;97942.81;;;21.77;38.12
73934;BME280;62286;50.528;18.284;2022-12-11T01:17:11;97944.81;;;21.77;38.25
73934;BME280;62286;50.528;18.284;2022-12-11T01:19:36;97944.06;;;21.76;38.20
73934;BME280;62286;50.528;18.284;2022-12-11T01:22:01;97941.25;;;21.76;38.23
73934;BME280;62286;50.528;18.284;2022-12-11T01:24:26;97948.84;;;21.76;38.44
73934;BME280;62286;50.528;18.284;2022-12-11T01:26:52;97940.47;;;21.76;38.14
73934;BME280;62286;50.528;18.284;2022-12-11T01:29:17;97943.28;;;21.76;38.19
73934;BME280;62286;50.528;18.284;2022-12-11T01:31:42;97938.16;;;21.74;38.33
73934;BME280;62286;50.528;18.284;2022-12-11T01:34:07;97931.03;;;21.73;38.21
73934;BME280;62286;50.528;18.284;2022-12-11T01:36:32;97932.22;;;21.72;38.38
73934;BME280;62286;50.528;18.284;2022-12-11T01:38:57;97937.03;;;21.72;38.67
73934;BME280;62286;50.528;18.284;2022-12-11T01:41:23;97933.47;;;21.71;38.45
73934;BME280;62286;50.528;18.284;2022-12-11T01:43:58;97930.66;;;21.71;38.15
73934;BME280;62286;50.528;18.284;2022-12-11T01:46:24;97929.13;;;21.70;38.43
73934;BME280;62286;50.528;18.284;2022-12-11T01:48:49;97929.88;;;21.71;38.34
73934;BME280;62286;50.528;18.284;2022-12-11T01:51:14;97930.34;;;21.69;38.50
73934;BME280;62286;50.528;18.284;2022-12-11T01:53:41;97924.00;;;21.69;38.48
73934;BME280;62286;50.528;18.284;2022-12-11T01:56:07;97929.13;;;21.70;38.33
73934;BME280;62286;50.528;18.284;2022-12-11T01:58:33;97924.78;;;21.69;38.52
73934;BME280;62286;50.528;18.284;2022-12-11T02:00:59;97928.00;;;21.68;38.35
73934;BME280;62286;50.528;18.284;2022-12-11T02:03:25;97930.81;;;21.68;38.49
73934;BME280;62286;50.528;18.284;2022-12-11T02:05:50;97926.47;;;21.67;38.34
73934;BME280;62286;50.528;18.284;2022-12-11T02:08:16;97925.66;;;21.66;38.51
73934;BME280;62286;50.528;18.284;2022-12-11T02:13:12;97923.66;;;21.67;38.23
73934;BME280;62286;50.528;18.284;2022-12-11T02:15:50;97915.31;;;21.67;38.60
73934;BME280;62286;50.528;18.284;2022-12-11T02:20:54;97914.50;;;21.66;38.40
73934;BME280;62286;50.528;18.284;2022-12-11T02:28:27;97910.16;;;21.65;38.54
73934;BME280;62286;50.528;18.284;2022-12-11T02:31:04;97916.50;;;21.66;38.35
73934;BME280;62286;50.528;18.284;2022-12-11T02:33:49;97912.50;;;21.67;38.40
73934;BME280;62286;50.528;18.284;2022-12-11T02:36:15;97910.50;;;21.67;38.28
73934;BME280;62286;50.528;18.284;2022-12-11T02:38:41;97910.50;;;21.67;38.46
73934;BME280;62286;50.528;18.284;2022-12-11T02:41:07;97914.06;;;21.68;38.56
73934;BME280;62286;50.528;18.284;2022-12-11T02:43:34;97914.06;;;21.68;38.59
73934;BME280;62286;50.528;18.284;2022-12-11T02:46:00;97910.06;;;21.69;38.30
73934;BME280;62286;50.528;18.284;2022-12-11T02:48:27;97916.41;;;21.69;38.46
73934;BME280;62286;50.528;18.284;2022-12-11T02:50:54;97914.38;;;21.70;38.39
73934;BME280;62286;50.528;18.284;2022-12-11T02:53:21;97914.38;;;21.70;38.52
73934;BME280;62286;50.528;18.284;2022-12-11T02:55:49;97918.75;;;21.71;38.22
73934;BME280;62286;50.528;18.284;2022-12-11T02:58:29;97915.94;;;21.71;38.40
73934;BME280;62286;50.528;18.284;2022-12-11T03:00:56;97920.75;;;21.70;38.26
73934;BME280;62286;50.528;18.284;2022-12-11T03:03:21;97911.59;;;21.70;38.46
73934;BME280;62286;50.528;18.284;2022-12-11T03:05:46;97911.59;;;21.70;38.52
73934;BME280;62286;50.528;18.284;2022-12-11T03:08:12;97912.38;;;21.70;38.42
73934;BME280;62286;50.528;18.284;2022-12-11T03:10:37;97914.38;;;21.70;38.46
73934;BME280;62286;50.528;18.284;2022-12-11T03:13:02;97913.16;;;21.71;38.34
73934;BME280;62286;50.528;18.284;2022-12-11T03:15:45;97923.53;;;21.70;38.55
73934;BME280;62286;50.528;18.284;2022-12-11T03:18:17;97907.59;;;21.71;38.49
73934;BME280;62286;50.528;18.284;2022-12-11T03:20:57;97907.59;;;21.71;38.26
73934;BME280;62286;50.528;18.284;2022-12-11T03:23:27;97901.22;;;21.70;38.55
73934;BME280;62286;50.528;18.284;2022-12-11T03:25:57;97904.00;;;21.70;38.28
73934;BME280;62286;50.528;18.284;2022-12-11T03:31:04;97910.38;;;21.71;38.29
73934;BME280;62286;50.528;18.284;2022-12-11T03:33:35;97915.94;;;21.71;38.48
73934;BME280;62286;50.528;18.284;2022-12-11T03:36:03;97912.38;;;21.70;38.27
73934;BME280;62286;50.528;18.284;2022-12-11T03:38:30;97915.16;;;21.70;38.52
73934;BME280;62286;50.528;18.284;2022-12-11T03:40:58;97915.94;;;21.71;38.28
73934;BME280;62286;50.528;18.284;2022-12-11T03:43:25;97909.59;;;21.70;38.45
73934;BME280;62286;50.528;18.284;2022-12-11T03:45:52;97911.94;;;21.72;38.41
73934;BME280;62286;50.528;18.284;2022-12-11T03:48:18;97903.56;;;21.72;38.45
73934;BME280;62286;50.528;18.284;2022-12-11T03:50:44;97908.34;;;21.71;38.27
73934;BME280;62286;50.528;18.284;2022-12-11T03:53:11;97893.63;;;21.71;38.29
73934;BME280;62286;50.528;18.284;2022-12-11T03:55:36;97907.59;;;21.71;38.28
73934;BME280;62286;50.528;18.284;2022-12-11T03:58:03;97890.06;;;21.70;38.48
73934;BME280;62286;50.528;18.284;2022-12-11T04:00:28;97890.84;;;21.71;38.52
73934;BME280;62286;50.528;18.284;2022-12-11T04:02:54;97909.59;;;21.70;38.52
73934;BME280;62286;50.528;18.284;2022-12-11T04:05:19;97897.66;;;21.70;38.42
73934;BME280;62286;50.528;18.284;2022-12-11T04:07:44;97908.03;;;21.69;38.56
73934;BME280;62286;50.528;18.284;2022-12-11T04:10:09;97901.69;;;21.69;38.55
73934;BME280;62286;50.528;18.284;2022-12-11T04:12:34;97896.09;;;21.69;38.33
73934;BME280;62286;50.528;18.284;2022-12-11T04:14:59;97891.75;;;21.68;38.38
73934;BME280;62286;50.528;18.284;2022-12-11T04:17:24;97891.00;;;21.67;38.33
73934;BME280;62286;50.528;18.284;2022-12-11T04:19:49;97889.75;;;21.68;38.46
73934;BME280;62286;50.528;18.284;2022-12-11T04:22:15;97893.31;;;21.69;38.35
73934;BME280;62286;50.528;18.284;2022-12-11T04:24:41;97891.75;;;21.68;38.53
73934;BME280;62286;50.528;18.284;2022-12-11T04:27:06;97888.19;;;21.67;38.61
73934;BME280;62286;50.528;18.284;2022-12-11T04:29:31;97893.31;;;21.69;38.28
73934;BME280;62286;50.528;18.284;2022-12-11T04:31:56;97875.81;;;21.68;38.61
73934;BME280;62286;50.528;18.284;2022-12-11T04:34:21;97875.81;;;21.68;38.50
73934;BME280;62286;50.528;18.284;2022-12-11T04:36:47;97873.03;;;21.68;38.33
73934;BME280;62286;50.528;18.284;2022-12-11T04:39:12;97876.59;;;21.69;38.54
73934;BME280;62286;50.528;18.284;2022-12-11T04:41:37;97870.22;;;21.68;38.60
73934;BME280;62286;50.528;18.284;2022-12-11T04:44:02;97870.22;;;21.68;38.33
73934;BME280;62286;50.528;18.284;2022-12-11T04:46:27;97871.00;;;21.69;38.29
73934;BME280;62286;50.528;18.284;2022-12-11T04:48:52;97880.16;;;21.69;38.40
73934;BME280;62286;50.528;18.284;2022-12-11T04:51:18;97875.81;;;21.68;38.33
73934;BME280;62286;50.528;18.284;2022-12-11T04:53:43;97868.22;;;21.69;38.25
73934;BME280;62286;50.528;18.284;2022-12-11T04:56:09;97864.66;;;21.68;38.41
73934;BME280;62286;50.528;18.284;2022-12-11T04:58:35;97870.22;;;21.68;38.33
73934;BME280;62286;50.528;18.284;2022-12-11T05:01:05;97875.81;;;21.68;38.44
73934;BME280;62286;50.528;18.284;2022-12-11T05:03:30;97876.28;;;21.67;38.24
73934;BME280;62286;50.528;18.284;2022-12-11T05:05:55;97877.81;;;21.68;38.50
73934;BME280;62286;50.528;18.284;2022-12-11T05:08:20;97875.03;;;21.68;38.46
73934;BME280;62286;50.528;18.284;2022-12-11T05:10:57;97875.47;;;21.66;38.58
73934;BME280;62286;50.528;18.284;2022-12-11T05:13:23;97874.25;;;21.67;38.34
73934;BME280;62286;50.528;18.284;2022-12-11T05:15:48;97870.69;;;21.67;38.54
73934;BME280;62286;50.528;18.284;2022-12-11T05:18:13;97878.25;;;21.66;38.41
73934;BME280;62286;50.528;18.284;2022-12-11T05:20:38;97864.31;;;21.66;38.45
73934;BME280;62286;50.528;18.284;2022-12-11T05:23:03;97867.91;;;21.67;38.34
73934;BME280;62286;50.528;18.284;2022-12-11T05:25:28;97867.91;;;21.67;38.42
73934;BME280;62286;50.528;18.284;2022-12-11T05:27:54;97865.88;;;21.67;38.31
73934;BME280;62286;50.528;18.284;2022-12-11T05:30:19;97866.66;;;21.68;38.61
73934;BME280;62286;50.528;18.284;2022-12-11T05:32:44;97862.31;;;21.67;38.51
73934;BME280;62286;50.528;18.284;2022-12-11T05:35:09;97871.47;;;21.67;38.35
73934;BME280;62286;50.528;18.284;2022-12-11T05:37:34;97873.03;;;21.68;38.43
73934;BME280;62286;50.528;18.284;2022-12-11T05:39:59;97870.69;;;21.67;38.44
73934;BME280;62286;50.528;18.284;2022-12-11T05:42:24;97872.25;;;21.68;38.44
73934;BME280;62286;50.528;18.284;2022-12-11T05:44:50;97870.22;;;21.68;38.42
73934;BME280;62286;50.528;18.284;2022-12-11T05:47:15;97866.66;;;21.68;38.30
73934;BME280;62286;50.528;18.284;2022-12-11T05:49:40;97875.47;;;21.66;38.29
73934;BME280;62286;50.528;18.284;2022-12-11T05:52:05;97867.91;;;21.67;38.28
73934;BME280;62286;50.528;18.284;2022-12-11T05:54:30;97872.66;;;21.66;38.29
73934;BME280;62286;50.528;18.284;2022-12-11T05:56:55;97870.69;;;21.67;38.25
73934;BME280;62286;50.528;18.284;2022-12-11T05:59:20;97864.31;;;21.66;38.34
73934;BME280;62286;50.528;18.284;2022-12-11T06:01:45;97873.47;;;21.67;38.47
73934;BME280;62286;50.528;18.284;2022-12-11T06:04:11;97873.47;;;21.67;38.30
73934;BME280;62286;50.528;18.284;2022-12-11T06:06:36;97877.81;;;21.68;38.29
73934;BME280;62286;50.528;18.284;2022-12-11T06:09:02;97883.81;;;21.66;38.54
73934;BME280;62286;50.528;18.284;2022-12-11T06:11:28;97889.41;;;21.66;38.29
73934;BME280;62286;50.528;18.284;2022-12-11T06:13:53;97887.84;;;21.65;38.51
73934;BME280;62286;50.528;18.284;2022-12-11T06:16:19;97890.63;;;21.65;38.26
73934;BME280;62286;50.528;18.284;2022-12-11T06:18:44;97906.59;;;21.65;38.61
73934;BME280;62286;50.528;18.284;2022-12-11T06:21:18;97899.00;;;21.65;38.54
73934;BME280;62286;50.528;18.284;2022-12-11T06:23:44;97906.59;;;21.65;38.60
73934;BME280;62286;50.528;18.284;2022-12-11T06:26:10;97909.38;;;21.65;38.33
73934;BME280;62286;50.528;18.284;2022-12-11T06:28:35;97909.38;;;21.65;38.58
73934;BME280;62286;50.528;18.284;2022-12-11T06:31:00;97911.72;;;21.66;38.31
73934;BME280;62286;50.528;18.284;2022-12-11T06:33:25;97916.50;;;21.66;38.41
73934;BME280;62286;50.528;18.284;2022-12-11T06:35:51;97916.50;;;21.66;38.29
73934;BME280;62286;50.528;18.284;2022-12-11T06:38:16;97919.28;;;21.66;38.45
73934;BME280;62286;50.528;18.284;2022-12-11T06:40:41;97919.28;;;21.66;38.54
73934;BME280;62286;50.528;18.284;2022-12-11T06:43:06;97930.03;;;21.67;38.28
73934;BME280;62286;50.528;18.284;2022-12-11T06:45:32;97915.72;;;21.65;38.36
73934;BME280;62286;50.528;18.284;2022-12-11T06:47:57;97913.28;;;21.67;38.44
73934;BME280;62286;50.528;18.284;2022-12-11T06:50:22;97920.06;;;21.66;38.56
73934;BME280;62286;50.528;18.284;2022-12-11T06:52:47;97914.50;;;21.66;38.38
73934;BME280;62286;50.528;18.284;2022-12-11T06:55:12;97909.72;;;21.67;38.46
73934;BME280;62286;50.528;18.284;2022-12-11T06:57:38;97908.16;;;21.66;38.47
73934;BME280;62286;50.528;18.284;2022-12-11T07:00:03;97920.88;;;21.67;38.25
73934;BME280;62286;50.528;18.284;2022-12-11T07:02:28;97916.50;;;21.66;38.50
73934;BME280;62286;50.528;18.284;2022-12-11T07:04:53;97916.50;;;21.66;38.38
73934;BME280;62286;50.528;18.284;2022-12-11T07:07:18;97918.09;;;21.67;38.54
73934;BME280;62286;50.528;18.284;2022-12-11T07:09:43;97905.34;;;21.66;38.57
73934;BME280;62286;50.528;18.284;2022-12-11T07:12:09;97908.16;;;21.66;38.36
73934;BME280;62286;50.528;18.284;2022-12-11T07:14:34;97910.94;;;21.66;38.37
73934;BME280;62286;50.528;18.284;2022-12-11T07:16:59;97907.38;;;21.65;38.61
73934;BME280;62286;50.528;18.284;2022-12-11T07:19:24;97902.56;;;21.66;38.44
73934;BME280;62286;50.528;18.284;2022-12-11T07:21:49;97910.16;;;21.65;38.41
73934;BME280;62286;50.528;18.284;2022-12-11T07:24:15;97919.28;;;21.66;38.45
73934;BME280;62286;50.528;18.284;2022-12-11T07:26:40;97930.44;;;21.66;38.28
73934;BME280;62286;50.528;18.284;2022-12-11T07:29:05;97909.38;;;21.65;38.32
73934;BME280;62286;50.528;18.284;2022-12-11T07:31:30;97909.38;;;21.65;38.35
73934;BME280;62286;50.528;18.284;2022-12-11T07:33:56;97923.31;;;21.65;38.50
73934;BME280;62286;50.528;18.284;2022-12-11T07:36:22;97924.56;;;21.64;38.36
73934;BME280;62286;50.528;18.284;2022-12-11T07:38:47;97928.56;;;21.63;38.27
73934;BME280;62286;50.528;18.284;2022-12-11T07:41:13;97928.56;;;21.63;38.58
73934;BME280;62286;50.528;18.284;2022-12-11T07:43:38;97925.00;;;21.62;38.38
73934;BME280;62286;50.528;18.284;2022-12-11T07:46:04;97930.59;;;21.62;38.52
73934;BME280;62286;50.528;18.284;2022-12-11T07:48:29;97929.34;;;21.63;38.50
73934;BME280;62286;50.528;18.284;2022-12-11T07:50:55;97928.56;;;21.63;38.72
73934;BME280;62286;50.528;18.284;2022-12-11T07:53:20;97937.72;;;21.63;38.50
73934;BME280;62286;50.528;18.284;2022-12-11T07:55:45;97932.91;;;21.64;38.36
73934;BME280;62286;50.528;18.284;2022-12-11T07:58:10;97932.91;;;21.64;38.58
73934;BME280;62286;50.528;18.284;2022-12-11T08:00:35;97932.13;;;21.63;38.46
73934;BME280;62286;50.528;18.284;2022-12-11T08:03:00;97932.13;;;21.63;38.50
73934;BME280;62286;50.528;18.284;2022-12-11T08:05:25;97936.16;;;21.62;38.55
73934;BME280;62286;50.528;18.284;2022-12-11T08:07:50;97932.91;;;21.64;38.39
73934;BME280;62286;50.528;18.284;2022-12-11T08:10:16;97939.72;;;21.63;38.56
73934;BME280;62286;50.528;18.284;2022-12-11T08:12:41;97933.38;;;21.62;38.46
73934;BME280;62286;50.528;18.284;2022-12-11T08:15:06;97929.03;;;21.61;38.38
73934;BME280;62286;50.528;18.284;2022-12-11T08:17:31;97932.59;;;21.62;38.55
73934;BME280;62286;50.528;18.284;2022-12-11T08:19:56;97928.25;;;21.61;38.45
73934;BME280;62286;50.528;18.284;2022-12-11T08:22:21;97926.25;;;21.61;38.54
73934;BME280;62286;50.528;18.284;2022-12-11T08:24:46;97927.47;;;21.60;38.53
73934;BME280;62286;50.528;18.284;2022-12-11T08:27:12;97922.69;;;21.61;38.56
73934;BME280;62286;50.528;18.284;2022-12-11T08:29:37;97933.81;;;21.61;38.58
73934;BME280;62286;50.528;18.284;2022-12-11T08:32:02;97930.59;;;21.62;38.31
73934;BME280;62286;50.528;18.284;2022-12-11T08:34:27;97938.94;;;21.62;38.62
73934;BME280;62286;50.528;18.284;2022-12-11T08:36:52;97935.38;;;21.62;38.47
73934;BME280;62286;50.528;18.284;2022-12-11T08:39:17;97929.81;;;21.62;38.47
73934;BME280;62286;50.528;18.284;2022-12-11T08:41:43;97925.00;;;21.62;38.27
73934;BME280;62286;50.528;18.284;2022-12-11T08:44:09;97925.78;;;21.63;38.51
73934;BME280;62286;50.528;18.284;2022-12-11T08:46:35;97932.91;;;21.64;38.55
73934;BME280;62286;50.528;18.284;2022-12-11T08:49:00;97931.38;;;21.63;38.24
73934;BME280;62286;50.528;18.284;2022-12-11T08:51:26;97928.56;;;21.63;38.46
73934;BME280;62286;50.528;18.284;2022-12-11T08:53:55;97925.00;;;21.62;38.37
73934;BME280;62286;50.528;18.284;2022-12-11T08:56:21;97928.56;;;21.63;38.57
73934;BME280;62286;50.528;18.284;2022-12-11T08:58:46;97925.78;;;21.63;38.37
73934;BME280;62286;50.528;18.284;2022-12-11T09:01:13;97927.34;;;21.64;38.49
73934;BME280;62286;50.528;18.284;2022-12-11T09:03:39;97913.41;;;21.64;38.46
73934;BME280;62286;50.528;18.284;2022-12-11T09:06:11;97922.09;;;21.66;38.49
73934;BME280;62286;50.528;18.284;2022-12-11T09:08:37;97924.09;;;21.65;38.22
73934;BME280;62286;50.528;18.284;2022-12-11T09:11:03;97919.66;;;21.68;38.28
73934;BME280;62286;50.528;18.284;2022-12-11T09:13:28;97916.84;;;21.68;38.28
73934;BME280;62286;50.528;18.284;2022-12-11T09:15:53;97921.97;;;21.69;38.23
73934;BME280;62286;50.528;18.284;2022-12-11T09:18:18;97922.75;;;21.70;38.41
73934;BME280;62286;50.528;18.284;2022-12-11T09:20:43;97921.97;;;21.69;38.42
73934;BME280;62286;50.528;18.284;2022-12-11T09:23:09;97918.75;;;21.71;38.38
73934;BME280;62286;50.528;18.284;2022-12-11T09:25:34;97921.53;;;21.71;38.36
73934;BME280;62286;50.528;18.284;2022-12-11T09:28:03;97917.97;;;21.70;38.17
73934;BME280;62286;50.528;18.284;2022-12-11T09:30:28;97914.38;;;21.70;38.23
73934;BME280;62286;50.528;18.284;2022-12-11T09:32:53;97907.25;;;21.69;38.25
73934;BME280;62286;50.528;18.284;2022-12-11T09:35:18;97904.47;;;21.69;38.47
73934;BME280;62286;50.528;18.284;2022-12-11T09:37:43;97902.91;;;21.68;38.46
73934;BME280;62286;50.528;18.284;2022-12-11T09:40:09;97909.72;;;21.67;38.43
73934;BME280;62286;50.528;18.284;2022-12-11T09:45:09;97899.91;;;21.62;38.36
73934;BME280;62286;50.528;18.284;2022-12-11T09:47:47;97904.38;;;21.60;38.39
73934;BME280;62286;50.528;18.284;2022-12-11T09:50:27;97899.25;;;21.58;38.16
73934;BME280;62286;50.528;18.284;2022-12-11T10:03:36;97884.22;;;21.43;38.33
73934;BME280;62286;50.528;18.284;2022-12-11T10:09:31;97896.94;;;21.44;38.57
73934;BME280;62286;50.528;18.284;2022-12-11T10:16:35;97884.44;;;21.48;38.56
73934;BME280;62286;50.528;18.284;2022-12-11T10:19:03;97888.00;;;21.49;38.46
73934;BME280;62286;50.528;18.284;2022-12-11T10:21:28;97888.78;;;21.49;38.44
73934;BME280;62286;50.528;18.284;2022-12-11T10:23:59;97879.19;;;21.51;38.48
73934;BME280;62286;50.528;18.284;2022-12-11T10:26:26;97883.53;;;21.52;38.57
73934;BME280;62286;50.528;18.284;2022-12-11T10:28:52;97885.88;;;21.53;38.50
73934;BME280;62286;50.528;18.284;2022-12-11T10:31:27;97881.09;;;21.54;38.54
73934;BME280;62286;50.528;18.284;2022-12-11T10:33:59;97883.88;;;21.54;38.49
73934;BME280;62286;50.528;18.284;2022-12-11T10:36:26;97881.09;;;21.54;38.55
73934;BME280;62286;50.528;18.284;2022-12-11T10:38:51;97882.66;;;21.55;38.33
73934;BME280;62286;50.528;18.284;2022-12-11T10:41:17;97875.84;;;21.56;38.28
73934;BME280;62286;50.528;18.284;2022-12-11T10:43:43;97877.06;;;21.55;38.50
73934;BME280;62286;50.528;18.284;2022-12-11T10:49:03;97865.91;;;21.55;38.28
73934;BME280;62286;50.528;18.284;2022-12-11T10:53:54;97868.72;;;21.55;38.41
73934;BME280;62286;50.528;18.284;2022-12-11T10:56:25;97868.72;;;21.55;38.47
73934;BME280;62286;50.528;18.284;2022-12-11T10:58:51;97854.78;;;21.55;38.12
73934;BME280;62286;50.528;18.284;2022-12-11T11:01:18;97856.78;;;21.54;38.33
73934;BME280;62286;50.528;18.284;2022-12-11T11:03:52;97855.56;;;21.55;38.28
73934;BME280;62286;50.528;18.284;2022-12-11T11:06:18;97849.53;;;21.57;38.49
73934;BME280;62286;50.528;18.284;2022-12-11T11:08:45;97842.38;;;21.56;38.52
73934;BME280;62286;50.528;18.284;2022-12-11T11:11:24;97842.38;;;21.56;38.29
73934;BME280;62286;50.528;18.284;2022-12-11T11:13:50;97843.94;;;21.57;38.33
73934;BME280;62286;50.528;18.284;2022-12-11T11:16:16;97847.19;;;21.55;38.43
73934;BME280;62286;50.528;18.284;2022-12-11T11:18:47;97842.84;;;21.54;38.30
73934;BME280;62286;50.528;18.284;2022-12-11T11:21:20;97844.03;;;21.53;38.11
73934;BME280;62286;50.528;18.284;2022-12-11T11:23:46;97838.03;;;21.55;38.51
73934;BME280;62286;50.528;18.284;2022-12-11T11:26:11;97836.50;;;21.54;38.33
73934;BME280;62286;50.528;18.284;2022-12-11T11:28:41;97830.91;;;21.54;38.25
73934;BME280;62286;50.528;18.284;2022-12-11T11:31:11;97830.91;;;21.54;38.22
73934;BME280;62286;50.528;18.284;2022-12-11T11:33:43;97819.75;;;21.54;38.48
73934;BME280;62286;50.528;18.284;2022-12-11T11:36:19;97826.53;;;21.53;38.34
73934;BME280;62286;50.528;18.284;2022-12-11T11:38:49;97822.97;;;21.52;38.21
73934;BME280;62286;50.528;18.284;2022-12-11T11:41:20;97822.19;;;21.52;38.32
73934;BME280;62286;50.528;18.284;2022-12-11T11:43:48;97813.72;;;21.55;38.48
73934;BME280;62286;50.528;18.284;2022-12-11T11:53:48;97813.34;;;21.66;38.23
73934;BME280;62286;50.528;18.284;2022-12-11T11:56:27;97817.72;;;21.67;38.40
73934;BME280;62286;50.528;18.284;2022-12-11T12:01:26;97813.69;;;21.68;38.37
73934;BME280;62286;50.528;18.284;2022-12-11T12:03:51;97818.03;;;21.69;38.07
73934;BME280;62286;50.528;18.284;2022-12-11T12:08:59;97817.56;;;21.70;38.35
73934;BME280;62286;50.528;18.284;2022-12-11T12:16:21;97821.13;;;21.71;38.26
73934;BME280;62286;50.528;18.284;2022-12-11T12:21:35;97812.78;;;21.71;38.35
73934;BME280;62286;50.528;18.284;2022-12-11T12:26:35;97815.88;;;21.73;38.07
73934;BME280;62286;50.528;18.284;2022-12-11T12:38:54;97810.75;;;21.71;37.95
73934;BME280;62286;50.528;18.284;2022-12-11T12:41:36;97798.06;;;21.70;38.26
73934;BME280;62286;50.528;18.284;2022-12-11T12:44:24;97805.97;;;21.72;38.02
73934;BME280;62286;50.528;18.284;2022-12-11T12:51:53;97801.31;;;21.69;38.07
73934;BME280;62286;50.528;18.284;2022-12-11T12:54:19;97803.63;;;21.70;38.21
73934;BME280;62286;50.528;18.284;2022-12-11T12:56:45;97795.72;;;21.69;38.21
73934;BME280;62286;50.528;18.284;2022-12-11T12:59:18;97804.09;;;21.69;38.20
73934;BME280;62286;50.528;18.284;2022-12-11T13:01:48;97799.75;;;21.68;38.33
73934;BME280;62286;50.528;18.284;2022-12-11T13:04:25;97810.91;;;21.68;38.09
73934;BME280;62286;50.528;18.284;2022-12-11T13:06:51;97814.13;;;21.66;38.21
73934;BME280;62286;50.528;18.284;2022-12-11T13:09:23;97817.72;;;21.67;38.04
73934;BME280;62286;50.528;18.284;2022-12-11T13:11:51;97814.56;;;21.65;38.03
73934;BME280;62286;50.528;18.284;2022-12-11T13:16:42;97815.03;;;21.63;38.26
73934;BME280;62286;50.528;18.284;2022-12-11T13:26:44;97822.31;;;21.61;38.20
73934;BME280;62286;50.528;18.284;2022-12-11T13:29:29;97826.31;;;21.60;38.27
73934;BME280;62286;50.528;18.284;2022-12-11T13:31:56;97826.31;;;21.60;38.20
73934;BME280;62286;50.528;18.284;2022-12-11T13:34:21;97826.31;;;21.60;37.93
73934;BME280;62286;50.528;18.284;2022-12-11T13:36:48;97821.97;;;21.59;38.04
73934;BME280;62286;50.528;18.284;2022-12-11T13:39:18;97825.53;;;21.59;38.02
73934;BME280;62286;50.528;18.284;2022-12-11T13:41:44;97824.31;;;21.60;38.20
73934;BME280;62286;50.528;18.284;2022-12-11T13:44:11;97817.03;;;21.63;38.07
73934;BME280;62286;50.528;18.284;2022-12-11T13:46:39;97823.09;;;21.61;38.20
73934;BME280;62286;50.528;18.284;2022-12-11T13:49:05;97829.75;;;21.64;38.38
73934;BME280;62286;50.528;18.284;2022-12-11T13:51:31;97835.34;;;21.64;38.10
73934;BME280;62286;50.528;18.284;2022-12-11T13:56:28;97821.38;;;21.64;38.00
73934;BME280;62286;50.528;18.284;2022-12-11T13:58:53;97827.75;;;21.64;38.01
73934;BME280;62286;50.528;18.284;2022-12-11T14:01:25;97831.75;;;21.63;38.25
73934;BME280;62286;50.528;18.284;2022-12-11T14:03:52;97838.13;;;21.64;38.17
73934;BME280;62286;50.528;18.284;2022-12-11T14:06:18;97842.13;;;21.63;37.92
73934;BME280;62286;50.528;18.284;2022-12-11T14:08:43;97840.13;;;21.63;38.21
73934;BME280;62286;50.528;18.284;2022-12-11T14:11:11;97846.16;;;21.62;38.11
73934;BME280;62286;50.528;18.284;2022-12-11T14:13:40;97848.94;;;21.62;38.11
73934;BME280;62286;50.528;18.284;2022-12-11T14:16:05;97844.94;;;21.63;38.07
73934;BME280;62286;50.528;18.284;2022-12-11T14:18:31;97850.50;;;21.63;38.26